Time;durP1;ratioP1;P1;durP2;ratioP2;P2;SDS_P1;SDS_P2;PMS_P1;PMS_P2;Temp;Humidity;BMP_temperature;BMP_pressure;BME280_temperature;BME280_humidity;BME280_pressure;Samples;Min_cycle;Max_cycle;Signal;HPM_P1;HPM_P2
2022/06/21 00:01:13;;;;;;;9.15;4.00;;;15.40;93.70;;;;;;5022523;28;20229;-68
2022/06/21 00:03:40;;;;;;;8.95;4.10;;;15.40;93.80;;;;;;5022258;28;20041;-68
2022/06/21 00:06:06;;;;;;;10.10;4.00;;;15.30;93.90;;;;;;5022780;28;20052;-68
2022/06/21 00:08:35;;;;;;;8.95;3.83;;;15.20;94.00;;;;;;5023943;28;20221;-68
2022/06/21 00:11:02;;;;;;;11.23;3.72;;;15.20;94.30;;;;;;5023769;28;20080;-68
2022/06/21 00:13:31;;;;;;;14.10;4.28;;;15.10;94.70;;;;;;5005875;28;20029;-68
2022/06/21 00:16:02;;;;;;;13.73;4.25;;;15.00;95.30;;;;;;5021603;28;20040;-68
2022/06/21 00:18:31;;;;;;;10.13;4.78;;;15.00;95.10;;;;;;5020715;28;20029;-68
2022/06/21 00:20:56;;;;;;;10.63;4.63;;;14.90;94.80;;;;;;5008914;28;20036;-68
2022/06/21 00:23:25;;;;;;;10.52;4.45;;;14.80;94.70;;;;;;5001334;28;20026;-68
2022/06/21 00:25:51;;;;;;;9.88;4.78;;;14.80;94.80;;;;;;5000282;28;20105;-68
2022/06/21 00:28:19;;;;;;;8.00;4.40;;;14.80;94.80;;;;;;4985400;28;20297;-68
2022/06/21 00:30:46;;;;;;;8.52;4.65;;;14.80;95.00;;;;;;5003036;28;20026;-70
2022/06/21 00:33:14;;;;;;;7.50;4.15;;;14.80;95.20;;;;;;5003946;28;20034;-67
2022/06/21 00:35:43;;;;;;;9.02;4.00;;;14.70;95.10;;;;;;5003832;28;20038;-67
2022/06/21 00:38:13;;;;;;;7.85;3.63;;;14.60;95.10;;;;;;5003842;28;20355;-68
2022/06/21 00:40:39;;;;;;;8.13;3.92;;;14.60;95.50;;;;;;4986928;28;20034;-67
2022/06/21 00:43:11;;;;;;;7.80;3.20;;;14.60;95.80;;;;;;5002423;28;20026;-67
2022/06/21 00:45:40;;;;;;;10.15;3.63;;;14.60;95.90;;;;;;5001519;28;20262;-67
2022/06/21 00:48:16;;;;;;;11.45;4.03;;;14.50;95.80;;;;;;5018968;28;20026;-67
2022/06/21 00:50:46;;;;;;;8.93;3.60;;;14.50;96.00;;;;;;5021363;28;20026;-67
2022/06/21 00:53:25;;;;;;;6.55;3.20;;;14.40;96.00;;;;;;5019459;28;20332;-67
2022/06/21 00:56:13;;;;;;;7.55;3.13;;;14.30;96.10;;;;;;5021373;28;20068;-67
2022/06/21 00:58:39;;;;;;;10.60;3.50;;;14.20;96.30;;;;;;5018580;28;20049;-68
2022/06/21 01:01:20;;;;;;;5.72;3.30;;;14.20;96.50;;;;;;5001830;28;20345;-67
2022/06/21 01:03:51;;;;;;;5.53;3.30;;;14.10;96.40;;;;;;4986867;28;20330;-67
2022/06/21 01:06:26;;;;;;;7.47;3.88;;;14.20;96.40;;;;;;5002231;28;20322;-67
2022/06/21 01:08:58;;;;;;;9.90;3.53;;;14.10;96.40;;;;;;5002856;28;20018;-67
2022/06/21 01:11:30;;;;;;;6.53;3.45;;;14.10;96.40;;;;;;5001809;28;20205;-68
2022/06/21 01:13:58;;;;;;;10.82;3.92;;;14.00;96.60;;;;;;5002232;28;20053;-67
2022/06/21 01:16:27;;;;;;;7.00;3.58;;;13.80;97.20;;;;;;5002055;28;20022;-67
2022/06/21 01:18:52;;;;;;;5.10;3.83;;;13.80;97.30;;;;;;5002549;28;20022;-67
2022/06/21 01:21:19;;;;;;;9.38;3.67;;;13.70;97.50;;;;;;5015449;28;20047;-67
2022/06/21 01:24:11;;;;;;;6.75;3.80;;;13.70;97.50;;;;;;5023153;28;20021;-68
2022/06/21 01:26:47;;;;;;;9.65;3.45;;;13.80;97.50;;;;;;5022307;28;20030;-68
2022/06/21 01:29:16;;;;;;;9.35;3.65;;;13.80;97.40;;;;;;5022186;28;20068;-67
2022/06/21 01:31:43;;;;;;;5.95;3.28;;;13.80;97.40;;;;;;5025005;28;20030;-68
2022/06/21 01:34:15;;;;;;;6.65;3.47;;;13.70;97.60;;;;;;5023928;28;20033;-68
2022/06/21 01:36:41;;;;;;;6.40;3.33;;;13.70;97.70;;;;;;5025726;28;20021;-68
2022/06/21 01:39:17;;;;;;;7.97;3.70;;;13.60;97.60;;;;;;5026464;28;20093;-67
2022/06/21 01:41:48;;;;;;;6.13;3.58;;;13.50;97.70;;;;;;5025368;28;20034;-68
2022/06/21 01:44:19;;;;;;;6.15;3.30;;;13.50;97.80;;;;;;5025177;28;20022;-68
2022/06/21 01:46:46;;;;;;;5.80;3.40;;;13.40;97.90;;;;;;5025357;28;20202;-67
2022/06/21 01:49:16;;;;;;;9.38;3.65;;;13.40;98.00;;;;;;5025022;28;20025;-67
2022/06/21 01:51:51;;;;;;;6.28;3.30;;;13.40;98.00;;;;;;5026117;28;20029;-68
2022/06/21 01:54:19;;;;;;;4.30;3.15;;;13.20;98.20;;;;;;5024976;28;20025;-67
2022/06/21 01:56:47;;;;;;;6.53;3.63;;;13.10;98.50;;;;;;5024147;28;20052;-67
2022/06/21 01:59:18;;;;;;;9.52;3.53;;;13.10;98.60;;;;;;5023885;28;20105;-67
2022/06/21 02:01:52;;;;;;;9.25;3.25;;;13.10;98.60;;;;;;5024258;28;20022;-67
2022/06/21 02:04:24;;;;;;;7.47;3.42;;;13.10;98.70;;;;;;5025935;28;20026;-67
2022/06/21 02:06:52;;;;;;;6.07;3.22;;;13.10;98.60;;;;;;5023595;28;20040;-67
2022/06/21 02:09:23;;;;;;;9.85;3.50;;;13.20;98.60;;;;;;5025719;28;20232;-67
2022/06/21 02:11:57;;;;;;;4.55;3.33;;;13.10;98.80;;;;;;5025804;28;20021;-67
2022/06/21 02:14:30;;;;;;;9.10;3.17;;;13.10;98.90;;;;;;5008016;28;20025;-67
2022/06/21 02:17:22;;;;;;;9.25;3.88;;;13.00;99.00;;;;;;5024031;28;20068;-67
2022/06/21 02:20:11;;;;;;;7.22;3.55;;;13.00;99.00;;;;;;5007907;28;20136;-68
2022/06/21 02:22:37;;;;;;;8.02;3.92;;;12.90;99.10;;;;;;5004138;28;20037;-67
2022/06/21 02:25:04;;;;;;;6.10;3.60;;;12.80;99.50;;;;;;5004270;28;20364;-67
2022/06/21 02:27:32;;;;;;;8.75;3.53;;;12.80;99.60;;;;;;5004535;28;20305;-67
2022/06/21 02:30:01;;;;;;;7.93;3.90;;;12.80;99.60;;;;;;5005652;28;20040;-67
2022/06/21 02:32:39;;;;;;;7.22;3.55;;;12.80;99.70;;;;;;5004189;28;20073;-68
2022/06/21 02:35:27;;;;;;;6.68;3.47;;;12.70;99.80;;;;;;5004800;28;20216;-67
2022/06/21 02:37:57;;;;;;;5.05;3.35;;;12.70;99.90;;;;;;4991257;28;20026;-68
2022/06/21 02:40:28;;;;;;;6.43;3.45;;;12.70;99.90;;;;;;5003676;28;20081;-68
2022/06/21 02:43:00;;;;;;;10.55;4.10;;;12.60;99.90;;;;;;5004970;28;20133;-67
2022/06/21 02:45:33;;;;;;;6.00;3.25;;;12.60;99.90;;;;;;4986673;28;20276;-67
2022/06/21 02:48:08;;;;;;;10.55;3.90;;;12.60;99.90;;;;;;5019084;28;20355;-67
2022/06/21 02:50:55;;;;;;;8.15;3.75;;;12.60;99.90;;;;;;5023764;28;20030;-67
2022/06/21 02:53:28;;;;;;;6.68;3.50;;;12.60;99.90;;;;;;5023511;28;20325;-67
2022/06/21 02:56:00;;;;;;;5.95;3.28;;;12.50;99.90;;;;;;5022126;28;20030;-67
2022/06/21 02:58:30;;;;;;;;;;;12.50;99.90;;;;;;5019038;28;20329;-67
2022/06/21 03:00:59;;;;;;;6.90;3.50;;;12.50;99.90;;;;;;5019300;28;19980;-67
2022/06/21 03:03:29;;;;;;;8.20;3.97;;;12.40;99.90;;;;;;5004810;28;20022;-67
2022/06/21 03:05:59;;;;;;;5.78;3.40;;;12.30;99.90;;;;;;5004397;28;20027;-67
2022/06/21 03:08:28;;;;;;;7.28;4.20;;;12.20;99.90;;;;;;5004802;28;20029;-67
2022/06/21 03:10:54;;;;;;;8.93;4.03;;;12.20;99.90;;;;;;4987469;28;20320;-68
2022/06/21 03:13:24;;;;;;;6.53;3.80;;;12.20;99.90;;;;;;5002491;28;20089;-68
2022/06/21 03:15:53;;;;;;;6.07;4.05;;;12.30;99.90;;;;;;5003855;28;20038;-68
2022/06/21 03:18:24;;;;;;;7.70;4.18;;;12.30;99.90;;;;;;5003286;28;20030;-68
2022/06/21 03:20:51;;;;;;;7.97;3.72;;;12.30;99.90;;;;;;5009046;28;20076;-68
2022/06/21 03:23:18;;;;;;;7.43;3.47;;;12.20;99.90;;;;;;5003217;28;20026;-68
2022/06/21 03:25:49;;;;;;;9.35;3.80;;;12.20;99.90;;;;;;5003261;28;20030;-68
2022/06/21 03:28:24;;;;;;;4.57;3.70;;;12.10;99.90;;;;;;5004143;28;20018;-68
2022/06/21 03:30:55;;;;;;;6.88;3.75;;;12.10;99.90;;;;;;5001598;28;20273;-68
2022/06/21 03:33:20;;;;;;;8.60;3.38;;;12.00;99.90;;;;;;5001761;28;20029;-68
2022/06/21 03:35:47;;;;;;;6.85;3.10;;;12.00;99.90;;;;;;5003926;28;20333;-68
2022/06/21 03:38:12;;;;;;;7.55;3.88;;;12.00;99.90;;;;;;5003439;28;20022;-68
2022/06/21 03:43:34;;;;;;;6.22;3.38;;;11.90;99.90;;;;;;5001848;28;20130;-68
2022/06/21 03:46:05;;;;;;;4.88;3.25;;;12.00;99.90;;;;;;5002858;28;20046;-68
2022/06/21 03:48:36;;;;;;;5.07;2.97;;;12.00;99.90;;;;;;5021122;28;20063;-68
2022/06/21 03:51:07;;;;;;;;;;;12.00;99.90;;;;;;5020976;28;20329;-67
2022/06/21 03:53:40;;;;;;;5.97;3.47;;;12.00;99.90;;;;;;5020567;28;19901;-69
2022/06/21 03:56:17;;;;;;;6.00;3.55;;;11.90;99.90;;;;;;5019852;28;20022;-69
2022/06/21 03:59:11;;;;;;;5.53;3.40;;;11.90;99.90;;;;;;5021534;28;20183;-68
2022/06/21 04:01:49;;;;;;;7.47;3.95;;;11.90;99.90;;;;;;5022156;28;20046;-67
2022/06/21 04:04:37;;;;;;;8.38;3.70;;;11.90;99.90;;;;;;5023340;28;20018;-67
2022/06/21 04:07:20;;;;;;;6.35;3.35;;;11.80;99.90;;;;;;5023094;28;20025;-67
2022/06/21 04:10:16;;;;;;;8.20;3.50;;;11.80;99.90;;;;;;5022150;28;20041;-67
2022/06/21 04:12:50;;;;;;;8.15;3.38;;;11.80;99.90;;;;;;5021092;28;20093;-69
2022/06/21 04:15:24;;;;;;;6.68;3.20;;;11.90;99.90;;;;;;5037890;28;20045;-67
2022/06/21 04:18:25;;;;;;;8.13;3.78;;;11.90;99.90;;;;;;5021263;28;20026;-67
2022/06/21 04:21:30;;;;;;;6.30;3.80;;;11.90;99.90;;;;;;5011423;28;20028;-67
2022/06/21 04:24:19;;;;;;;5.25;3.63;;;12.00;99.90;;;;;;5023922;28;20343;-67
2022/06/21 04:27:01;;;;;;;8.68;3.55;;;12.00;99.90;;;;;;5021150;28;20085;-69
2022/06/21 04:29:38;;;;;;;7.97;3.78;;;12.00;99.90;;;;;;5022746;28;20053;-69
2022/06/21 04:32:11;;;;;;;8.88;3.80;;;12.00;99.90;;;;;;5021271;28;20022;-69
2022/06/21 04:34:48;;;;;;;19.85;4.43;;;12.00;99.90;;;;;;5022861;28;20093;-67
2022/06/21 04:37:21;;;;;;;24.25;4.28;;;11.90;99.90;;;;;;5020812;28;20240;-69
2022/06/21 04:40:10;;;;;;;13.52;4.10;;;11.80;99.90;;;;;;5022357;28;20038;-67
2022/06/21 04:42:55;;;;;;;6.18;3.78;;;11.80;99.90;;;;;;5006111;28;20210;-67
2022/06/21 04:45:57;;;;;;;7.40;4.30;;;11.90;99.90;;;;;;5021770;28;20068;-67
2022/06/21 04:48:47;;;;;;;5.28;3.42;;;11.90;99.90;;;;;;4991575;28;20034;-67
2022/06/21 04:51:23;;;;;;;6.70;3.40;;;12.10;99.90;;;;;;5002498;28;20030;-67
2022/06/21 04:53:54;;;;;;;6.97;3.67;;;12.30;99.90;;;;;;5018230;28;20053;-68
2022/06/21 04:56:40;;;;;;;;;;;12.40;99.90;;;;;;5019993;28;20022;-68
2022/06/21 04:59:12;;;;;;;5.00;3.30;;;12.50;99.80;;;;;;5009865;28;19916;-68
2022/06/21 05:01:38;;;;;;;8.63;3.65;;;12.70;99.70;;;;;;5001561;28;20285;-68
2022/06/21 05:04:18;;;;;;;8.07;3.45;;;12.90;99.40;;;;;;4989122;28;20026;-68
2022/06/21 05:06:45;;;;;;;5.32;3.75;;;13.10;98.90;;;;;;5042578;28;20359;-68
2022/06/21 05:09:14;;;;;;;6.60;3.80;;;13.30;98.70;;;;;;5043677;28;20030;-68
2022/06/21 05:11:40;;;;;;;6.45;3.42;;;13.40;98.20;;;;;;5043474;28;20029;-68
2022/06/21 05:14:20;;;;;;;9.77;3.53;;;13.50;98.00;;;;;;5043491;28;20029;-68
2022/06/21 05:16:47;;;;;;;6.85;3.40;;;13.60;97.80;;;;;;5043388;28;20040;-68
2022/06/21 05:19:36;;;;;;;5.38;3.30;;;13.70;97.50;;;;;;5042621;28;20025;-68
2022/06/21 05:22:28;;;;;;;6.75;3.70;;;13.90;97.20;;;;;;5042558;28;20033;-68
2022/06/21 05:24:56;;;;;;;7.40;3.72;;;13.90;96.80;;;;;;5042462;28;20374;-68
2022/06/21 05:28:02;;;;;;;9.25;3.55;;;13.90;96.80;;;;;;5043548;28;20022;-68
2022/06/21 05:30:50;;;;;;;7.63;3.78;;;13.70;97.10;;;;;;5045206;28;20029;-68
2022/06/21 05:33:39;;;;;;;6.03;3.97;;;13.50;97.50;;;;;;5045029;28;20236;-68
2022/06/21 05:36:11;;;;;;;7.82;3.50;;;13.40;97.70;;;;;;5041540;28;20236;-68
2022/06/21 05:38:46;;;;;;;;;;;13.30;98.10;;;;;;5043640;28;20040;-68
2022/06/21 05:41:31;;;;;;;7.22;3.90;;;13.20;98.30;;;;;;5031826;28;19963;-68
2022/06/21 05:44:32;;;;;;;11.38;3.53;;;13.20;98.60;;;;;;5002253;28;20400;-68
2022/06/21 05:47:13;;;;;;;10.55;4.80;;;13.20;98.70;;;;;;5010788;28;20241;-67
2022/06/21 05:49:41;;;;;;;7.95;4.22;;;13.30;98.70;;;;;;5023243;28;20049;-69
2022/06/21 05:52:15;;;;;;;11.00;3.95;;;13.30;98.60;;;;;;5022189;28;20317;-68
2022/06/21 05:54:47;;;;;;;8.07;4.18;;;13.30;98.80;;;;;;5037539;28;20045;-68
2022/06/21 05:57:17;;;;;;;7.38;4.05;;;13.30;98.80;;;;;;5020580;28;20021;-69
2022/06/21 05:59:43;;;;;;;10.73;4.25;;;13.30;98.90;;;;;;5006004;28;20132;-69
2022/06/21 06:02:19;;;;;;;6.18;3.92;;;13.40;99.00;;;;;;5002422;28;20297;-69
2022/06/21 06:05:08;;;;;;;9.30;4.43;;;13.50;99.00;;;;;;5001849;28;20018;-69
2022/06/21 06:07:39;;;;;;;9.43;3.78;;;13.60;98.80;;;;;;5002285;28;20053;-69
2022/06/21 06:10:06;;;;;;;6.28;4.07;;;13.70;98.60;;;;;;4985428;28;20033;-67
2022/06/21 06:12:37;;;;;;;9.45;4.05;;;13.80;98.40;;;;;;5002016;28;20026;-68
2022/06/21 06:15:10;;;;;;;9.57;4.80;;;13.90;98.20;;;;;;5000399;28;20033;-70
2022/06/21 06:18:03;;;;;;;8.43;4.63;;;13.90;97.90;;;;;;4985485;28;20049;-68
2022/06/21 06:20:41;;;;;;;7.15;4.20;;;14.00;97.90;;;;;;5001347;28;20034;-69
2022/06/21 06:23:34;;;;;;;10.18;4.28;;;14.10;97.60;;;;;;5001424;28;20235;-70
2022/06/21 06:26:05;;;;;;;9.30;4.47;;;14.20;97.40;;;;;;5004891;28;20038;-70
2022/06/21 06:28:44;;;;;;;9.88;4.45;;;14.30;97.40;;;;;;5002350;28;20030;-70
2022/06/21 06:31:38;;;;;;;8.77;3.85;;;14.40;97.20;;;;;;5016374;28;20210;-68
2022/06/21 06:34:20;;;;;;;7.78;3.80;;;14.50;97.10;;;;;;5007195;28;20030;-68
2022/06/21 06:36:50;;;;;;;;;;;14.60;97.00;;;;;;5006528;28;20345;-68
2022/06/21 06:39:27;;;;;;;10.30;3.88;;;14.70;96.90;;;;;;5001127;28;19914;-69
2022/06/21 06:42:22;;;;;;;7.38;4.20;;;14.90;96.60;;;;;;5024358;28;20056;-69
2022/06/21 06:44:53;;;;;;;7.75;4.10;;;15.10;96.30;;;;;;5040730;28;20261;-70
2022/06/21 06:47:28;;;;;;;6.88;3.60;;;15.20;96.00;;;;;;5021321;28;20039;-70
2022/06/21 06:50:02;;;;;;;6.68;3.33;;;15.40;95.80;;;;;;5022581;28;20013;-70
2022/06/21 06:52:47;;;;;;;6.97;3.63;;;15.40;95.80;;;;;;5023701;28;20037;-69
2022/06/21 06:55:17;;;;;;;12.48;3.78;;;15.50;95.70;;;;;;5021431;28;20035;-69
2022/06/21 06:57:52;;;;;;;7.32;3.28;;;15.60;95.50;;;;;;5018000;28;20234;-69
2022/06/21 07:00:26;;;;;;;8.43;3.92;;;15.70;95.50;;;;;;5019874;28;20237;-69
2022/06/21 07:03:11;;;;;;;7.90;3.47;;;15.70;95.40;;;;;;5015223;28;20034;-69
2022/06/21 07:06:02;;;;;;;6.68;3.40;;;15.90;95.30;;;;;;5011756;28;20121;-67
2022/06/21 07:09:08;;;;;;;11.00;3.70;;;16.10;94.90;;;;;;5012149;28;20030;-69
2022/06/21 07:12:11;;;;;;;11.38;4.25;;;16.20;94.80;;;;;;5013405;28;20021;-69
2022/06/21 07:14:37;;;;;;;7.95;3.90;;;16.30;94.70;;;;;;5013752;28;20339;-70
2022/06/21 07:17:16;;;;;;;10.88;3.88;;;16.30;94.10;;;;;;5004924;28;20425;-68
2022/06/21 07:19:41;;;;;;;4.03;2.90;;;16.40;94.00;;;;;;5009002;28;20033;-68
2022/06/21 07:22:16;;;;;;;8.75;3.47;;;16.50;93.70;;;;;;5010407;28;20035;-68
2022/06/21 07:24:51;;;;;;;7.78;3.22;;;16.60;93.40;;;;;;5008325;28;20101;-68
2022/06/21 07:27:19;;;;;;;7.43;3.20;;;16.60;93.30;;;;;;5013716;28;20029;-67
2022/06/21 07:30:03;;;;;;;7.72;3.38;;;16.60;92.90;;;;;;5013221;28;20032;-66
2022/06/21 07:32:34;;;;;;;6.00;3.10;;;16.60;92.90;;;;;;5008082;28;20029;-70
2022/06/21 07:35:07;;;;;;;11.02;3.20;;;16.70;93.00;;;;;;5004326;28;20033;-69
2022/06/21 07:37:49;;;;;;;8.50;3.60;;;16.80;92.80;;;;;;5022130;28;20049;-70
2022/06/21 07:40:24;;;;;;;10.05;3.22;;;16.80;92.90;;;;;;5020584;28;20033;-67
2022/06/21 07:43:11;;;;;;;9.18;3.30;;;16.90;92.90;;;;;;5001317;28;20139;-68
2022/06/21 07:45:43;;;;;;;8.02;3.55;;;17.00;92.70;;;;;;5037271;28;20038;-68
2022/06/21 07:48:40;;;;;;;6.97;3.08;;;17.00;92.30;;;;;;5109741;27;20376;-70
2022/06/21 07:51:11;;;;;;;8.88;3.40;;;17.10;92.40;;;;;;5082661;28;20024;-69
2022/06/21 07:53:58;;;;;;;10.07;3.10;;;17.20;92.10;;;;;;5077692;28;20020;-70
2022/06/21 07:56:31;;;;;;;9.48;3.08;;;17.30;92.00;;;;;;5081521;28;20088;-70
2022/06/21 07:59:01;;;;;;;7.43;3.70;;;17.50;91.70;;;;;;5057739;28;20043;-73
2022/06/21 08:07:47;;;;;;;6.85;3.00;;;17.80;91.50;;;;;;5064221;28;20049;-70
2022/06/21 08:10:35;;;;;;;9.55;2.78;;;17.90;90.90;;;;;;5072093;28;20037;-71
2022/06/21 08:13:01;;;;;;;8.45;2.95;;;18.20;90.70;;;;;;5074975;28;20319;-70
2022/06/21 08:15:34;;;;;;;10.25;3.30;;;18.30;90.40;;;;;;5092407;28;20032;-69
2022/06/21 08:18:06;;;;;;;7.35;3.00;;;18.50;90.00;;;;;;5096614;28;20055;-69
2022/06/21 08:20:33;;;;;;;;;;;18.60;89.60;;;;;;5097006;28;20051;-71
2022/06/21 08:23:26;;;;;;;6.72;3.05;;;18.70;89.60;;;;;;5086536;28;19914;-68
2022/06/21 08:26:16;;;;;;;8.73;3.40;;;18.70;88.90;;;;;;5075316;28;20263;-69
2022/06/21 08:29:22;;;;;;;6.55;3.20;;;18.80;88.70;;;;;;5076083;28;20100;-70
2022/06/21 08:31:59;;;;;;;6.82;3.00;;;18.80;88.50;;;;;;5074542;28;20029;-69
2022/06/21 08:34:40;;;;;;;8.25;3.08;;;18.90;88.00;;;;;;5073296;28;20024;-72
2022/06/21 08:37:13;;;;;;;10.95;3.38;;;18.90;87.00;;;;;;5074056;28;20029;-69
2022/06/21 08:39:50;;;;;;;10.50;3.10;;;19.00;87.30;;;;;;5077195;28;20032;-68
2022/06/21 08:42:47;;;;;;;9.02;3.35;;;19.00;87.90;;;;;;5077692;28;20021;-71
2022/06/21 08:45:41;;;;;;;7.53;2.58;;;19.10;87.40;;;;;;5075696;28;20036;-71
2022/06/21 08:48:38;;;;;;;8.25;2.83;;;19.20;86.40;;;;;;5075880;28;20060;-73
2022/06/21 08:51:34;;;;;;;6.53;2.70;;;19.40;85.60;;;;;;5062659;28;20036;-71
2022/06/21 08:54:27;;;;;;;8.48;2.60;;;19.60;84.80;;;;;;5075411;28;20338;-73
2022/06/21 08:57:17;;;;;;;6.97;2.63;;;19.80;84.10;;;;;;5062303;28;20283;-72
2022/06/21 09:00:09;;;;;;;5.00;2.50;;;20.00;84.20;;;;;;5046100;28;20025;-70
2022/06/21 09:02:42;;;;;;;;;;;20.30;82.30;;;;;;5062165;28;20335;-73
2022/06/21 09:05:47;;;;;;;7.82;2.53;;;20.30;81.90;;;;;;5065102;28;20192;-72
2022/06/21 09:08:52;;;;;;;14.48;3.10;;;20.40;81.30;;;;;;5062598;28;20395;-70
2022/06/21 09:11:50;;;;;;;8.45;3.10;;;20.40;81.60;;;;;;5037435;28;20024;-71
2022/06/21 09:14:45;;;;;;;10.90;2.92;;;20.50;81.20;;;;;;5049053;28;20519;-71
2022/06/21 09:17:26;;;;;;;6.65;2.72;;;20.60;80.30;;;;;;5048574;28;20025;-69
2022/06/21 09:20:20;;;;;;;6.57;3.10;;;20.70;79.00;;;;;;5046777;28;20156;-73
2022/06/21 09:23:22;;;;;;;6.00;2.88;;;20.80;79.20;;;;;;5049963;28;20025;-72
2022/06/21 09:26:11;;;;;;;6.50;2.70;;;21.00;78.60;;;;;;5061869;28;20041;-70
2022/06/21 09:28:44;;;;;;;8.07;2.90;;;21.00;78.20;;;;;;5059945;28;20071;-72
2022/06/21 09:31:50;;;;;;;6.55;3.20;;;21.00;78.80;;;;;;5060373;28;20029;-72
2022/06/21 09:34:55;;;;;;;8.65;3.38;;;21.00;77.80;;;;;;5059094;28;20045;-72
2022/06/21 09:37:50;;;;;;;10.63;3.30;;;21.10;77.90;;;;;;5058820;28;20071;-70
2022/06/21 09:40:31;;;;;;;10.50;2.65;;;21.10;77.70;;;;;;5059999;28;20037;-69
2022/06/21 09:43:16;;;;;;;9.73;3.20;;;21.20;77.60;;;;;;5040487;28;20025;-71
2022/06/21 09:46:21;;;;;;;5.07;2.92;;;21.40;77.20;;;;;;5056136;28;20265;-69
2022/06/21 09:49:15;;;;;;;6.63;2.90;;;21.50;76.30;;;;;;5049902;28;20075;-70
2022/06/21 09:51:55;;;;;;;12.00;3.33;;;21.60;76.20;;;;;;5047036;28;20104;-70
2022/06/21 09:54:45;;;;;;;6.10;2.95;;;21.70;76.50;;;;;;5060331;28;20200;-70
2022/06/21 09:57:42;;;;;;;10.02;3.40;;;21.70;75.40;;;;;;5058777;28;20114;-72
2022/06/21 10:00:13;;;;;;;10.45;2.85;;;21.70;75.60;;;;;;5037656;28;20340;-71
2022/06/21 10:02:56;;;;;;;7.95;3.13;;;21.80;74.80;;;;;;5040548;28;20283;-73
2022/06/21 10:05:46;;;;;;;9.63;2.85;;;22.00;74.50;;;;;;5039439;28;20037;-69
2022/06/21 10:08:38;;;;;;;8.40;3.10;;;21.90;74.10;;;;;;5039302;28;20179;-70
2022/06/21 10:11:43;;;;;;;9.30;3.03;;;21.70;74.50;;;;;;5038238;28;20029;-69
2022/06/21 10:14:49;;;;;;;7.72;2.88;;;21.60;75.10;;;;;;5051861;28;20279;-68
2022/06/21 10:17:43;;;;;;;8.73;3.08;;;21.60;74.20;;;;;;5059024;28;20067;-72
2022/06/21 10:20:49;;;;;;;7.80;3.05;;;21.60;74.00;;;;;;5058659;28;20039;-71
2022/06/21 10:23:54;;;;;;;7.13;3.10;;;21.60;73.90;;;;;;5059252;28;20084;-71
2022/06/21 10:27:00;;;;;;;10.93;3.13;;;21.70;74.10;;;;;;5041371;28;20029;-71
2022/06/21 10:29:53;;;;;;;11.02;3.00;;;21.80;73.50;;;;;;5058293;28;20037;-70
2022/06/21 10:32:49;;;;;;;8.07;2.92;;;21.80;72.10;;;;;;5040829;28;20100;-69
2022/06/21 10:35:44;;;;;;;5.45;2.60;;;21.90;71.40;;;;;;5060154;28;20029;-72
2022/06/21 10:38:47;;;;;;;4.75;2.88;;;21.80;71.80;;;;;;5053215;28;20060;-71
2022/06/21 10:41:38;;;;;;;7.03;2.72;;;21.90;71.20;;;;;;5045675;28;20040;-70
2022/06/21 10:44:43;;;;;;;4.30;2.63;;;21.80;70.30;;;;;;5059340;28;20096;-72
2022/06/21 10:47:26;;;;;;;7.13;2.15;;;21.90;70.70;;;;;;5047923;28;20094;-71
2022/06/21 10:50:10;;;;;;;8.57;3.00;;;21.90;70.30;;;;;;5063204;28;20020;-69
2022/06/21 10:53:07;;;;;;;6.85;2.40;;;22.00;70.40;;;;;;5061809;28;20033;-69
2022/06/21 11:01:16;;;;;;;6.65;2.33;;;22.00;70.70;;;;;;5046954;28;20029;-72
2022/06/21 11:02:59;;;;;;;5.00;2.40;;;22.10;71.10;;;;;;5046518;28;20125;-71
2022/06/21 11:05:56;;;;;;;15.65;3.03;;;22.40;70.30;;;;;;5047737;28;20028;-70
2022/06/21 11:09:03;;;;;;;4.70;2.33;;;22.60;69.80;;;;;;5061319;28;20096;-70
2022/06/21 11:12:52;;;;;;;6.80;2.85;;;22.60;68.40;;;;;;5034061;28;20029;-69
2022/06/21 11:15:02;;;;;;;6.20;2.28;;;22.60;68.80;;;;;;5059192;28;20251;-71
2022/06/21 11:18:07;;;;;;;7.40;2.25;;;22.50;68.90;;;;;;5060374;28;20234;-71
2022/06/21 11:21:06;;;;;;;6.68;2.38;;;22.60;68.90;;;;;;5057500;28;20033;-71
2022/06/21 11:24:12;;;;;;;6.82;2.65;;;22.70;69.40;;;;;;5061863;28;20027;-70
2022/06/21 11:27:17;;;;;;;7.70;2.15;;;22.70;68.60;;;;;;5030670;28;20025;-70
2022/06/21 11:30:03;;;;;;;10.82;2.40;;;22.80;68.60;;;;;;5040846;28;20108;-71
2022/06/21 11:32:55;;;;;;;8.95;2.60;;;22.90;68.80;;;;;;5038360;28;20044;-69
2022/06/21 11:35:30;;;;;;;;;;;23.00;68.00;;;;;;5040344;28;20033;-73
2022/06/21 11:38:25;;;;;;;7.47;2.30;;;23.10;67.40;;;;;;5039573;28;20084;-73
2022/06/21 11:44:26;;;;;;;6.97;2.40;;;22.90;68.00;;;;;;5034909;28;20032;-74
2022/06/21 11:47:00;;;;;;;7.50;2.50;;;23.10;68.10;;;;;;5058910;28;20063;-74
2022/06/21 11:49:36;;;;;;;5.97;2.20;;;23.20;67.40;;;;;;5058028;28;20080;-70
2022/06/21 11:52:42;;;;;;;6.45;1.95;;;23.30;68.10;;;;;;5057407;28;20272;-70
2022/06/21 11:55:46;;;;;;;8.15;2.40;;;23.50;67.50;;;;;;5059131;28;20044;-70
2022/06/21 11:58:30;;;;;;;7.53;2.20;;;23.70;68.40;;;;;;5059542;28;20025;-68
2022/06/21 12:01:08;;;;;;;6.60;2.58;;;23.90;67.00;;;;;;5043475;28;20032;-71
2022/06/21 12:04:08;;;;;;;6.95;2.60;;;24.00;66.60;;;;;;5039305;28;20022;-68
2022/06/21 12:06:52;;;;;;;8.70;2.20;;;24.10;66.20;;;;;;5029180;28;20040;-70
2022/06/21 12:09:58;;;;;;;7.90;2.58;;;24.30;66.30;;;;;;5041582;28;20025;-72
2022/06/21 12:13:03;;;;;;;5.60;2.28;;;24.20;64.90;;;;;;5043717;28;20032;-67
2022/06/21 12:15:57;;;;;;;5.45;2.30;;;24.30;65.00;;;;;;5041135;28;20056;-72
2022/06/21 12:18:28;;;;;;;6.90;2.35;;;24.10;64.80;;;;;;5040664;28;20025;-71
2022/06/21 12:21:15;;;;;;;4.28;2.40;;;24.00;64.90;;;;;;5040800;28;20024;-71
2022/06/21 12:23:45;;;;;;;5.47;2.40;;;24.00;64.90;;;;;;5042072;28;20089;-71
2022/06/21 12:26:15;;;;;;;7.95;2.00;;;24.00;64.50;;;;;;5044650;28;20021;-71
2022/06/21 12:28:41;;;;;;;8.70;3.58;;;24.00;65.10;;;;;;5060682;28;20021;-70
2022/06/21 12:31:27;;;;;;;4.60;2.50;;;24.00;64.60;;;;;;5060134;28;20360;-70
2022/06/21 12:34:05;;;;;;;6.90;2.47;;;23.80;64.50;;;;;;5063598;28;20029;-72
2022/06/21 12:36:41;;;;;;;5.90;2.38;;;23.90;65.10;;;;;;5064294;28;20028;-69
2022/06/21 12:39:31;;;;;;;6.10;2.08;;;24.00;64.30;;;;;;5065400;28;20078;-71
2022/06/21 12:42:17;;;;;;;8.15;2.17;;;24.00;64.50;;;;;;5076321;28;20092;-71
2022/06/21 12:45:22;;;;;;;2.97;1.98;;;24.20;64.10;;;;;;5063106;28;20029;-74
2022/06/21 12:48:28;;;;;;;4.80;2.08;;;24.40;64.00;;;;;;5046198;28;20364;-72
2022/06/21 12:51:29;;;;;;;6.88;2.28;;;24.40;63.40;;;;;;5058608;28;20084;-69
2022/06/21 12:54:10;;;;;;;5.82;2.08;;;24.70;63.10;;;;;;5064168;28;20054;-71
2022/06/21 12:57:05;;;;;;;4.65;2.13;;;24.80;62.60;;;;;;5064894;28;20204;-71
2022/06/21 12:59:56;;;;;;;8.45;2.30;;;24.50;63.10;;;;;;5063501;28;20033;-70
2022/06/21 13:02:46;;;;;;;4.22;1.80;;;24.40;63.60;;;;;;5063177;28;20020;-73
2022/06/21 13:05:42;;;;;;;5.47;2.25;;;24.50;63.90;;;;;;5063175;28;20027;-72
2022/06/21 13:08:35;;;;;;;4.90;2.10;;;24.50;63.40;;;;;;5064250;28;20093;-72
2022/06/21 13:11:30;;;;;;;4.75;2.00;;;24.50;62.80;;;;;;5063902;28;20024;-73
2022/06/21 13:14:35;;;;;;;4.13;2.20;;;24.60;62.30;;;;;;5064048;28;20025;-69
2022/06/21 13:17:40;;;;;;;6.03;1.92;;;24.70;61.80;;;;;;5051482;28;20190;-70
2022/06/21 13:20:32;;;;;;;6.13;2.45;;;24.80;62.10;;;;;;5062723;28;20032;-73
2022/06/21 13:23:38;;;;;;;8.10;2.58;;;24.90;62.50;;;;;;5063817;28;20017;-72
2022/06/21 13:26:21;;;;;;;7.75;2.65;;;25.00;62.00;;;;;;5057682;28;20017;-71
2022/06/21 13:29:20;;;;;;;8.73;2.53;;;24.90;60.90;;;;;;5062694;28;20127;-69
2022/06/21 13:31:53;;;;;;;4.32;2.10;;;25.00;61.30;;;;;;5048336;28;20032;-71
2022/06/21 13:34:32;;;;;;;4.93;2.00;;;25.20;61.40;;;;;;5045948;28;20251;-71
2022/06/21 13:37:07;;;;;;;5.10;2.22;;;25.30;59.30;;;;;;5061709;28;20377;-71
2022/06/21 13:40:02;;;;;;;6.88;2.10;;;25.30;59.90;;;;;;5060717;28;20053;-70
2022/06/21 13:42:38;;;;;;;4.30;1.85;;;25.40;59.80;;;;;;5078608;28;20200;-69
2022/06/21 13:45:33;;;;;;;6.47;1.80;;;25.40;60.00;;;;;;5083328;28;20303;-72
2022/06/21 13:48:32;;;;;;;4.88;2.00;;;25.50;60.20;;;;;;5064210;28;20052;-72
2022/06/21 13:51:07;;;;;;;3.40;2.22;;;25.30;59.70;;;;;;5063094;28;20036;-73
2022/06/21 13:53:42;;;;;;;7.22;2.25;;;25.20;59.50;;;;;;5063239;28;20032;-72
2022/06/21 13:56:32;;;;;;;12.52;2.80;;;25.30;60.10;;;;;;5064146;28;20032;-72
2022/06/21 13:59:06;;;;;;;3.25;1.95;;;25.40;60.60;;;;;;5062818;28;20219;-71
2022/06/21 14:02:11;;;;;;;3.88;1.92;;;25.50;60.10;;;;;;5062473;28;20074;-74
2022/06/21 14:05:01;;;;;;;5.80;2.10;;;25.50;59.80;;;;;;5028224;28;20051;-73
2022/06/21 14:08:03;;;;;;;6.60;2.10;;;25.40;58.90;;;;;;5059943;28;20033;-72
2022/06/21 14:10:51;;;;;;;6.50;2.25;;;25.40;59.30;;;;;;5063428;28;20062;-72
2022/06/21 14:13:38;;;;;;;4.03;1.83;;;25.50;60.20;;;;;;5063489;28;20028;-72
2022/06/21 14:16:25;;;;;;;14.63;2.72;;;25.60;60.40;;;;;;5063246;28;20362;-72
2022/06/21 14:19:02;;;;;;;5.07;1.85;;;25.50;60.40;;;;;;5061907;28;20017;-69